< < Back
Terminal Aerodrome Forecast


Current Version              Previous Versions:   1  2  3  4  5  6  7  8  9  

Terminal Aerodrome Forecast

552
FTUS42 KGSP 292331
TAFGSP
TAF
KGSP 292331Z 3000/3024 16005KT P6SM FEW050
     FM300300 00000KT P6SM FEW070
     FM301100 00000KT P6SM BKN018
     FM301500 18003KT P6SM BKN024
     FM301600 16007KT P6SM SCT045=



Latest METAR

956
SAUS70 KWBC 302000 RRJ
MTRGSP
METAR KGSP 301953Z 15006KT 10SM CLR 28/16 A3013 RMK AO2 SLP192
T02830161


USA.gov is the U.S. government's official web portal to all federal, state and local government web resources and services.